createdAt,value
2023-05-17T00:03:35.994Z,2.50
2023-05-17T00:06:04.544Z,4.80
2023-05-17T00:08:33.507Z,4.90
2023-05-17T00:11:01.707Z,1.70
2023-05-17T00:13:30.789Z,4.50
2023-05-17T00:15:58.836Z,3.20
2023-05-17T00:18:27.260Z,3.60
2023-05-17T00:20:55.667Z,4.20
2023-05-17T00:23:24.291Z,2.10
2023-05-17T00:25:52.535Z,3.60
2023-05-17T00:28:21.216Z,2.90
2023-05-17T00:30:49.946Z,2.70
2023-05-17T00:33:18.981Z,4.80
2023-05-17T00:35:47.318Z,5.10
2023-05-17T00:38:15.610Z,5.80
2023-05-17T00:40:43.944Z,3.10
2023-05-17T00:43:13.299Z,2.60
2023-05-17T00:45:42.785Z,4.70
2023-05-17T00:48:11.032Z,7.40
2023-05-17T00:50:39.495Z,2.70
2023-05-17T00:53:09.831Z,3.60
2023-05-17T00:55:39.450Z,5.20
2023-05-17T00:58:08.155Z,3.70
2023-05-17T01:00:36.281Z,4.30
2023-05-17T01:03:05.828Z,1.90
2023-05-17T01:05:35.111Z,6.60
2023-05-17T01:08:04.226Z,1.90
2023-05-17T01:11:10.782Z,2.20
2023-05-17T01:14:03.832Z,3.60
2023-05-17T01:16:39.449Z,3.10
2023-05-17T01:19:50.446Z,2.20
2023-05-17T01:22:31.963Z,3.10
2023-05-17T01:25:43.578Z,3.10
2023-05-17T01:28:14.193Z,2.90
2023-05-17T01:30:47.316Z,4.60
2023-05-17T01:33:16.608Z,4.20
2023-05-17T01:35:44.885Z,3.50
2023-05-17T01:38:13.364Z,4.00
2023-05-17T01:41:04.224Z,2.20
2023-05-17T01:44:00.493Z,3.40
2023-05-17T01:46:34.754Z,2.50
2023-05-17T01:49:16.349Z,5.00
2023-05-17T01:51:49.347Z,3.00
2023-05-17T01:54:23.489Z,2.40
2023-05-17T01:56:57.822Z,2.30
2023-05-17T01:59:27.790Z,4.00
2023-05-17T02:02:00.934Z,3.90
2023-05-17T02:04:30.879Z,3.90
2023-05-17T02:06:59.169Z,3.50
2023-05-17T02:09:27.981Z,3.60
2023-05-17T02:11:57.036Z,3.20
2023-05-17T02:14:25.770Z,3.30
2023-05-17T02:16:54.469Z,3.20
2023-05-17T02:19:23.019Z,5.00
2023-05-17T02:21:51.320Z,4.20
2023-05-17T02:24:21.608Z,2.80
2023-05-17T02:26:49.787Z,1.90
2023-05-17T02:29:18.048Z,2.40
2023-05-17T02:31:46.756Z,3.90
2023-05-17T02:34:15.237Z,3.20
2023-05-17T02:36:43.458Z,2.10
2023-05-17T02:39:12.557Z,1.90
2023-05-17T02:41:41.777Z,3.40
2023-05-17T02:44:09.902Z,2.40
2023-05-17T02:46:38.720Z,2.40
2023-05-17T02:49:07.451Z,2.40
2023-05-17T02:51:35.984Z,2.30
2023-05-17T02:54:05.197Z,2.80
2023-05-17T02:56:34.091Z,3.60
2023-05-17T02:59:03.539Z,3.00
2023-05-17T03:01:31.761Z,3.50
2023-05-17T03:04:00.748Z,2.80
2023-05-17T03:06:29.303Z,3.80
2023-05-17T03:08:57.463Z,4.00
2023-05-17T03:11:26.825Z,6.10
2023-05-17T03:13:55.799Z,2.20
2023-05-17T03:16:24.587Z,2.80
2023-05-17T03:18:53.001Z,4.20
2023-05-17T03:21:21.366Z,2.70
2023-05-17T03:23:50.177Z,3.80
2023-05-17T03:26:19.238Z,3.50
2023-05-17T03:28:48.071Z,3.10
2023-05-17T03:31:16.507Z,3.50
2023-05-17T03:33:45.566Z,2.30
2023-05-17T03:36:15.301Z,2.00
2023-05-17T03:38:44.391Z,5.90
2023-05-17T03:41:13.107Z,4.70
2023-05-17T03:43:41.993Z,4.10
2023-05-17T03:46:10.868Z,2.00
2023-05-17T03:48:39.048Z,2.70
2023-05-17T03:51:07.395Z,3.90
2023-05-17T03:53:36.673Z,1.60
2023-05-17T03:56:05.679Z,4.10
2023-05-17T03:58:34.001Z,4.00
2023-05-17T04:01:04.327Z,5.10
2023-05-17T04:03:33.374Z,2.60
2023-05-17T04:06:05.839Z,3.90
2023-05-17T04:08:35.767Z,4.60
2023-05-17T04:11:04.536Z,2.10
2023-05-17T04:13:32.891Z,2.60
2023-05-17T04:16:01.236Z,3.40
2023-05-17T04:18:30.758Z,5.80
2023-05-17T04:20:59.530Z,3.50
2023-05-17T04:23:28.265Z,3.40
2023-05-17T04:25:56.593Z,6.20
2023-05-17T04:28:26.304Z,2.10
2023-05-17T04:30:56.377Z,4.40
2023-05-17T04:33:25.191Z,4.00
2023-05-17T04:35:57.116Z,4.30
2023-05-17T04:38:25.297Z,4.40
2023-05-17T04:40:54.449Z,2.10
2023-05-17T04:43:22.883Z,5.00
2023-05-17T04:45:57.060Z,4.40
2023-05-17T04:48:26.022Z,3.60
2023-05-17T04:50:54.382Z,3.00
2023-05-17T04:53:22.564Z,6.80
2023-05-17T04:55:51.419Z,3.80
2023-05-17T04:58:19.553Z,3.70
2023-05-17T05:00:48.320Z,3.00
2023-05-17T05:03:16.586Z,2.20
2023-05-17T05:05:45.911Z,6.40
2023-05-17T05:08:14.301Z,3.70
2023-05-17T05:10:43.766Z,6.70
2023-05-17T05:13:12.992Z,2.90
2023-05-17T05:15:43.891Z,7.70
2023-05-17T05:18:12.332Z,3.40
2023-05-17T05:20:40.411Z,2.40
2023-05-17T05:23:08.833Z,4.50
2023-05-17T05:25:38.254Z,4.30
2023-05-17T05:28:06.906Z,4.70
2023-05-17T05:30:35.224Z,3.80
2023-05-17T05:33:04.193Z,4.50
2023-05-17T05:35:32.880Z,5.90
2023-05-17T05:38:01.264Z,2.90
2023-05-17T05:40:29.934Z,6.00
2023-05-17T05:42:58.606Z,3.60
2023-05-17T05:45:26.844Z,3.40
2023-05-17T05:47:55.473Z,4.30
2023-05-17T05:50:23.800Z,5.50
2023-05-17T05:52:53.484Z,4.50
2023-05-17T05:55:24.525Z,6.80
2023-05-17T05:57:52.782Z,7.70
2023-05-17T06:00:21.295Z,4.90
2023-05-17T06:02:49.500Z,9.50
2023-05-17T06:05:17.942Z,4.50
2023-05-17T06:07:46.369Z,3.70
2023-05-17T06:10:14.704Z,3.20
2023-05-17T06:12:42.996Z,6.30
2023-05-17T06:15:11.497Z,4.60
2023-05-17T06:17:39.699Z,5.40
2023-05-17T06:20:10.144Z,5.70
2023-05-17T06:22:38.948Z,8.90
2023-05-17T06:25:07.779Z,8.30
2023-05-17T06:27:38.907Z,5.30
2023-05-17T06:30:09.263Z,3.70
2023-05-17T06:32:37.576Z,6.90
2023-05-17T06:35:06.227Z,6.20
2023-05-17T06:37:34.418Z,7.10
2023-05-17T06:40:14.832Z,8.20
2023-05-17T06:42:44.140Z,5.40
2023-05-17T06:45:12.862Z,6.20
2023-05-17T06:47:41.321Z,9.30
2023-05-17T06:50:09.933Z,8.60
2023-05-17T06:52:38.310Z,8.00
2023-05-17T06:55:07.392Z,7.70
2023-05-17T06:57:36.597Z,10.20
2023-05-17T07:00:05.652Z,16.20
2023-05-17T07:02:34.885Z,9.80
2023-05-17T07:05:05.780Z,12.20
2023-05-17T07:07:34.587Z,10.10
2023-05-17T07:10:03.152Z,14.90
2023-05-17T07:12:32.835Z,5.50
2023-05-17T07:15:01.216Z,12.10
2023-05-17T07:17:29.809Z,10.30
2023-05-17T07:19:58.277Z,8.60
2023-05-17T07:22:26.542Z,13.90
2023-05-17T07:24:54.766Z,6.90
2023-05-17T07:27:23.158Z,7.40
2023-05-17T07:29:51.267Z,10.60
2023-05-17T07:32:19.625Z,8.30
2023-05-17T07:34:48.358Z,10.20
2023-05-17T07:37:19.165Z,8.30
2023-05-17T07:39:47.625Z,14.30
2023-05-17T07:42:16.311Z,13.70
2023-05-17T07:44:44.725Z,13.60
2023-05-17T07:47:12.971Z,10.60
2023-05-17T07:49:41.521Z,10.50
2023-05-17T07:52:10.437Z,13.90
2023-05-17T07:54:40.018Z,11.00
2023-05-17T07:57:08.106Z,11.60
2023-05-17T07:59:36.220Z,8.00
2023-05-17T08:02:04.819Z,11.10
2023-05-17T08:04:33.340Z,16.00
2023-05-17T08:07:02.542Z,11.20
2023-05-17T08:09:30.714Z,9.00
2023-05-17T08:11:58.872Z,9.90
2023-05-17T08:14:29.055Z,11.30
2023-05-17T08:16:58.192Z,16.10
2023-05-17T08:19:26.666Z,10.40
2023-05-17T08:21:55.011Z,7.30
2023-05-17T08:24:23.146Z,16.20
2023-05-17T08:26:53.326Z,15.10
2023-05-17T08:29:22.326Z,10.10
2023-05-17T08:31:50.937Z,8.80
2023-05-17T08:34:19.099Z,13.80
2023-05-17T08:36:47.288Z,9.90
2023-05-17T08:39:15.935Z,9.80
2023-05-17T08:41:46.976Z,16.50
2023-05-17T08:44:16.979Z,14.30
2023-05-17T08:46:48.092Z,7.70
2023-05-17T08:49:17.013Z,11.30
2023-05-17T08:51:47.323Z,10.30
2023-05-17T08:54:15.775Z,12.30
2023-05-17T08:56:45.079Z,9.20
2023-05-17T08:59:13.634Z,11.00
2023-05-17T09:01:45.073Z,9.30
2023-05-17T09:04:13.981Z,7.60
2023-05-17T09:06:43.369Z,14.80
2023-05-17T09:09:12.224Z,6.90
2023-05-17T09:11:40.627Z,10.60
2023-05-17T09:14:09.206Z,10.90
2023-05-17T09:16:38.410Z,8.50
2023-05-17T09:19:08.205Z,8.50
2023-05-17T09:21:37.039Z,8.90
2023-05-17T09:24:07.788Z,12.70
2023-05-17T09:26:46.016Z,14.50
2023-05-17T09:29:16.468Z,12.80
2023-05-17T09:31:45.269Z,14.00
2023-05-17T09:34:19.106Z,8.80
2023-05-17T09:36:47.312Z,14.50
2023-05-17T09:39:16.108Z,13.30
2023-05-17T09:41:47.173Z,12.10
2023-05-17T09:44:17.030Z,16.00
2023-05-17T09:46:49.044Z,13.20
2023-05-17T09:49:19.517Z,12.40
2023-05-17T09:51:49.593Z,9.40
2023-05-17T09:54:17.859Z,17.00
2023-05-17T09:56:54.158Z,7.90
2023-05-17T09:59:25.952Z,10.80
2023-05-17T10:01:57.790Z,9.80
2023-05-17T10:04:30.938Z,17.40
2023-05-17T10:07:01.665Z,8.10
2023-05-17T10:09:32.937Z,11.90
2023-05-17T10:12:03.053Z,12.50
2023-05-17T10:14:32.879Z,10.70
2023-05-17T10:17:02.484Z,11.10
2023-05-17T10:19:31.422Z,15.00
2023-05-17T10:22:19.019Z,11.30
2023-05-17T10:24:51.745Z,21.20
2023-05-17T10:27:21.014Z,19.00
2023-05-17T10:29:50.875Z,13.00
2023-05-17T10:32:21.934Z,23.70
2023-05-17T10:34:58.141Z,13.60
2023-05-17T10:37:35.621Z,19.60
2023-05-17T10:40:05.285Z,16.90
2023-05-17T10:42:33.980Z,15.50
2023-05-17T10:45:03.112Z,15.30
2023-05-17T10:47:32.844Z,15.50
2023-05-17T10:50:02.256Z,12.80
2023-05-17T10:52:31.072Z,16.50
2023-05-17T10:55:00.027Z,10.80
2023-05-17T11:00:09.002Z,17.40
2023-05-17T11:02:42.242Z,12.20
2023-05-17T11:05:24.385Z,15.40
2023-05-17T11:07:52.899Z,20.90
2023-05-17T11:10:23.532Z,10.70
2023-05-17T11:12:52.444Z,15.50
2023-05-17T11:15:25.178Z,12.40
2023-05-17T11:17:54.005Z,22.50
2023-05-17T11:20:40.721Z,11.00
2023-05-17T11:23:17.045Z,10.90
2023-05-17T11:25:46.519Z,15.90
2023-05-17T11:28:21.619Z,18.50
2023-05-17T11:30:49.839Z,20.20
2023-05-17T11:33:29.710Z,9.90
2023-05-17T11:36:06.910Z,23.20
2023-05-17T11:38:35.099Z,20.80
2023-05-17T11:46:25.290Z,13.80
2023-05-17T11:48:55.998Z,12.30
2023-05-17T11:51:25.863Z,17.70
2023-05-17T11:53:55.058Z,15.50
2023-05-17T11:56:35.535Z,17.30
2023-05-17T11:59:11.296Z,25.10
2023-05-17T12:01:44.847Z,22.60
2023-05-17T12:04:13.719Z,17.30
2023-05-17T12:06:44.653Z,19.00
2023-05-17T12:09:16.709Z,16.20
2023-05-17T12:11:45.086Z,16.60
2023-05-17T12:14:17.525Z,14.30
2023-05-17T12:16:50.733Z,11.50
2023-05-17T12:19:20.708Z,18.80
2023-05-17T12:21:49.861Z,14.60
2023-05-17T12:24:18.176Z,19.30
2023-05-17T12:26:48.507Z,13.30
2023-05-17T12:29:20.239Z,11.00
2023-05-17T12:31:50.976Z,16.20
2023-05-17T12:34:19.482Z,17.50
2023-05-17T12:36:47.856Z,15.60
2023-05-17T12:39:17.077Z,11.80
2023-05-17T12:41:45.897Z,17.20
2023-05-17T12:44:16.155Z,8.80
2023-05-17T12:46:45.210Z,18.90
2023-05-17T12:49:13.580Z,11.20
2023-05-17T12:51:46.695Z,8.50
2023-05-17T12:54:26.378Z,10.00
2023-05-17T12:56:54.863Z,9.60
2023-05-17T12:59:23.643Z,11.20
2023-05-17T13:01:57.341Z,12.00
2023-05-17T13:04:32.432Z,19.30
2023-05-17T13:07:04.504Z,13.90
2023-05-17T13:09:34.578Z,19.20
2023-05-17T13:12:07.570Z,15.70
2023-05-17T13:14:39.337Z,9.30
2023-05-17T13:17:13.527Z,12.90
2023-05-17T13:19:41.740Z,15.90
2023-05-17T13:22:11.014Z,18.40
2023-05-17T13:24:39.982Z,12.60
2023-05-17T13:27:08.976Z,13.40
2023-05-17T13:29:41.259Z,10.50
2023-05-17T13:32:11.982Z,10.20
2023-05-17T13:34:41.310Z,14.90
2023-05-17T13:37:12.082Z,13.00
2023-05-17T13:39:42.030Z,12.00
2023-05-17T13:42:13.868Z,16.70
2023-05-17T13:44:42.543Z,10.00
2023-05-17T13:47:10.743Z,18.20
2023-05-17T13:49:39.163Z,21.70
2023-05-17T13:52:09.302Z,19.90
2023-05-17T13:54:37.880Z,15.10
2023-05-17T13:57:07.207Z,12.60
2023-05-17T13:59:36.156Z,11.50
2023-05-17T14:02:04.440Z,12.40
2023-05-17T14:04:33.732Z,18.00
2023-05-17T14:07:03.615Z,11.90
2023-05-17T14:09:32.104Z,16.70
2023-05-17T14:12:01.757Z,13.80
2023-05-17T14:14:30.858Z,20.20
2023-05-17T14:17:00.976Z,11.60
2023-05-17T14:19:29.465Z,10.60
2023-05-17T14:21:59.429Z,12.40
2023-05-17T14:24:29.556Z,12.20
2023-05-17T14:26:57.862Z,12.50
2023-05-17T14:29:26.475Z,17.20
2023-05-17T14:31:54.736Z,16.10
2023-05-17T14:34:23.578Z,24.40
2023-05-17T14:36:53.592Z,13.50
2023-05-17T14:39:21.752Z,19.70
2023-05-17T14:41:49.928Z,15.80
2023-05-17T14:44:18.372Z,17.50
2023-05-17T14:46:46.605Z,12.60
2023-05-17T14:49:14.954Z,20.60
2023-05-17T14:51:43.837Z,15.20
2023-05-17T14:54:13.641Z,18.30
2023-05-17T14:56:42.432Z,9.90
2023-05-17T14:59:10.876Z,23.70
2023-05-17T15:01:39.125Z,15.50
2023-05-17T15:04:07.934Z,15.00
2023-05-17T15:06:36.294Z,17.00
2023-05-17T15:09:04.735Z,18.40
2023-05-17T15:11:32.831Z,18.90
2023-05-17T15:14:01.180Z,19.40
2023-05-17T15:16:29.412Z,22.60
2023-05-17T15:18:57.958Z,11.50
2023-05-17T15:21:26.575Z,22.40
2023-05-17T15:23:56.287Z,16.80
2023-05-17T15:26:24.681Z,18.30
2023-05-17T15:28:53.289Z,13.00
2023-05-17T15:31:21.950Z,14.70
2023-05-17T15:33:50.872Z,19.30
2023-05-17T15:36:19.676Z,12.40
2023-05-17T15:38:47.946Z,18.00
2023-05-17T15:41:18.134Z,26.30
2023-05-17T15:43:46.714Z,25.30
2023-05-17T15:46:15.204Z,15.70
2023-05-17T15:48:43.643Z,23.60
2023-05-17T15:51:12.431Z,21.00
2023-05-17T15:53:40.834Z,19.00
2023-05-17T15:56:09.170Z,26.40
2023-05-17T15:58:37.523Z,15.40
2023-05-17T16:01:06.284Z,22.20
2023-05-17T16:03:34.688Z,21.10
2023-05-17T16:06:03.290Z,18.50
2023-05-17T16:08:32.283Z,23.70
2023-05-17T16:11:02.173Z,22.70
2023-05-17T16:13:31.058Z,17.50
2023-05-17T16:16:00.316Z,18.90
2023-05-17T16:18:28.637Z,15.10
2023-05-17T16:20:58.854Z,24.80
2023-05-17T16:23:27.097Z,21.30
2023-05-17T16:25:55.950Z,19.60
2023-05-17T16:28:24.389Z,20.90
2023-05-17T16:30:53.389Z,14.80
2023-05-17T16:33:21.963Z,18.70
2023-05-17T16:35:50.290Z,14.10
2023-05-17T16:38:18.501Z,17.10
2023-05-17T16:40:46.675Z,19.10
2023-05-17T16:43:15.473Z,14.20
2023-05-17T16:45:44.240Z,19.90
2023-05-17T16:48:13.755Z,17.80
2023-05-17T16:50:42.919Z,20.50
2023-05-17T16:53:11.616Z,18.40
2023-05-17T16:55:40.160Z,17.10
2023-05-17T16:58:08.948Z,15.60
2023-05-17T17:00:38.108Z,20.20
2023-05-17T17:03:09.254Z,24.50
2023-05-17T17:05:38.983Z,21.40
2023-05-17T17:08:15.180Z,15.40
2023-05-17T17:10:44.115Z,17.50
2023-05-17T17:13:12.323Z,14.00
2023-05-17T17:15:40.507Z,19.30
2023-05-17T17:18:08.890Z,17.30
2023-05-17T17:20:37.160Z,17.00
2023-05-17T17:23:05.286Z,23.80
2023-05-17T17:25:33.595Z,17.50
2023-05-17T17:28:03.717Z,16.60
2023-05-17T17:30:32.242Z,21.50
2023-05-17T17:33:01.163Z,19.80
2023-05-17T17:35:29.872Z,22.70
2023-05-17T17:37:58.172Z,17.20
2023-05-17T17:40:26.720Z,16.90
2023-05-17T17:42:55.485Z,15.00
2023-05-17T17:45:24.465Z,17.00
2023-05-17T17:47:53.033Z,20.00
2023-05-17T17:50:21.782Z,17.40
2023-05-17T17:52:50.559Z,24.80
2023-05-17T17:55:19.303Z,19.80
2023-05-17T17:57:47.342Z,13.50
2023-05-17T18:00:15.905Z,18.70
2023-05-17T18:02:44.778Z,25.40
2023-05-17T18:05:13.249Z,20.00
2023-05-17T18:07:41.416Z,21.60
2023-05-17T18:10:10.894Z,24.80
2023-05-17T18:12:39.239Z,21.60
2023-05-17T18:15:07.715Z,16.30
2023-05-17T18:17:36.465Z,17.50
2023-05-17T18:20:05.728Z,17.70
2023-05-17T18:22:34.474Z,17.80
2023-05-17T18:25:03.477Z,20.60
2023-05-17T18:27:31.579Z,19.90
2023-05-17T18:29:59.951Z,22.00
2023-05-17T18:32:28.400Z,21.10
2023-05-17T18:34:57.908Z,22.40
2023-05-17T18:37:26.155Z,19.50
2023-05-17T18:39:54.568Z,23.90
2023-05-17T18:42:22.775Z,17.20
2023-05-17T18:44:50.978Z,16.90
2023-05-17T18:47:19.351Z,21.40
2023-05-17T18:49:47.504Z,16.80
2023-05-17T18:52:15.755Z,22.20
2023-05-17T18:54:45.339Z,23.60
2023-05-17T18:57:14.728Z,15.60
2023-05-17T18:59:42.800Z,13.40
2023-05-17T19:02:11.011Z,15.90
2023-05-17T19:04:39.161Z,16.50
2023-05-17T19:07:07.531Z,18.90
2023-05-17T19:09:36.787Z,20.60
2023-05-17T19:12:05.856Z,26.00
2023-05-17T19:14:34.200Z,15.50
2023-05-17T19:17:03.651Z,21.40
2023-05-17T19:19:53.866Z,15.70
2023-05-17T19:22:25.350Z,19.60
2023-05-17T19:24:53.497Z,21.90
2023-05-17T19:27:22.712Z,24.90
2023-05-17T19:29:50.929Z,16.90
2023-05-17T19:32:19.237Z,14.40
2023-05-17T19:34:50.130Z,11.80
2023-05-17T19:37:18.777Z,10.50
2023-05-17T19:39:47.008Z,14.40
2023-05-17T19:42:15.341Z,17.10
2023-05-17T19:44:43.466Z,15.50
2023-05-17T19:47:11.674Z,16.10
2023-05-17T19:49:39.863Z,18.10
2023-05-17T19:52:08.768Z,17.50
2023-05-17T19:54:37.646Z,14.90
2023-05-17T19:57:06.241Z,12.70
2023-05-17T19:59:34.533Z,17.40
2023-05-17T20:02:02.659Z,21.60
2023-05-17T20:04:30.796Z,13.80
2023-05-17T20:06:59.205Z,14.40
2023-05-17T20:09:27.298Z,18.50
2023-05-17T20:11:55.486Z,13.50
2023-05-17T20:14:23.830Z,21.20
2023-05-17T20:16:52.044Z,16.30
2023-05-17T20:19:20.123Z,18.40
2023-05-17T20:21:48.950Z,12.90
2023-05-17T20:24:17.247Z,17.40
2023-05-17T20:26:45.357Z,17.10
2023-05-17T20:29:13.778Z,15.10
2023-05-17T20:31:42.518Z,20.20
2023-05-17T20:34:10.981Z,14.10
2023-05-17T20:36:39.462Z,9.50
2023-05-17T20:39:07.535Z,12.70
2023-05-17T20:41:35.773Z,12.90
2023-05-17T20:44:04.166Z,15.50
2023-05-17T20:46:33.238Z,15.50
2023-05-17T20:49:02.671Z,19.40
2023-05-17T20:51:31.562Z,16.80
2023-05-17T20:54:01.113Z,13.70
2023-05-17T20:56:29.747Z,12.30
2023-05-17T20:58:58.408Z,15.10
2023-05-17T21:01:27.059Z,16.30
2023-05-17T21:03:55.794Z,13.70
2023-05-17T21:06:24.763Z,9.50
2023-05-17T21:08:53.003Z,18.60
2023-05-17T21:11:21.486Z,14.30
2023-05-17T21:13:51.004Z,16.30
2023-05-17T21:16:19.212Z,21.40
2023-05-17T21:18:47.854Z,12.30
2023-05-17T21:21:16.496Z,16.00
2023-05-17T21:23:45.197Z,11.00
2023-05-17T21:26:13.436Z,15.00
2023-05-17T21:28:42.073Z,14.10
2023-05-17T21:31:10.385Z,12.80
2023-05-17T21:33:38.522Z,13.40
2023-05-17T21:36:06.919Z,14.40
2023-05-17T21:38:35.026Z,10.50
2023-05-17T21:41:03.693Z,13.90
2023-05-17T21:43:31.998Z,15.00
2023-05-17T21:46:00.231Z,7.40
2023-05-17T21:48:29.011Z,18.90
2023-05-17T21:50:57.670Z,9.00
2023-05-17T21:53:25.939Z,17.20
2023-05-17T21:56:02.142Z,8.70
2023-05-17T21:58:32.104Z,13.80
2023-05-17T22:01:01.561Z,15.50
2023-05-17T22:03:30.146Z,14.30
2023-05-17T22:05:58.562Z,15.30
2023-05-17T22:08:26.997Z,14.90
2023-05-17T22:10:55.272Z,11.20
2023-05-17T22:13:24.015Z,13.30
2023-05-17T22:15:55.451Z,15.20
2023-05-17T22:18:23.782Z,17.00
2023-05-17T22:20:51.953Z,19.40
2023-05-17T22:23:20.465Z,17.70
2023-05-17T22:25:48.893Z,18.60
2023-05-17T22:28:17.191Z,11.00
2023-05-17T22:30:45.209Z,23.30
2023-05-17T22:33:13.368Z,14.20
2023-05-17T22:35:41.599Z,22.80
2023-05-17T22:38:09.802Z,13.50
2023-05-17T22:40:38.444Z,13.00
2023-05-17T22:43:06.761Z,18.50
2023-05-17T22:45:34.979Z,13.40
2023-05-17T22:48:04.277Z,14.20
2023-05-17T22:50:33.320Z,16.70
2023-05-17T22:53:02.180Z,12.80
2023-05-17T22:55:30.801Z,17.10
2023-05-17T22:57:59.213Z,17.00
2023-05-17T23:00:27.362Z,17.20
2023-05-17T23:02:55.884Z,16.10
2023-05-17T23:05:24.067Z,13.50
2023-05-17T23:07:52.258Z,19.50
2023-05-17T23:10:20.810Z,13.50
2023-05-17T23:12:50.216Z,15.50
2023-05-17T23:15:20.468Z,15.20
2023-05-17T23:17:48.688Z,18.90
2023-05-17T23:20:17.424Z,13.10
2023-05-17T23:22:46.264Z,14.30
2023-05-17T23:25:15.837Z,21.90
2023-05-17T23:27:43.986Z,17.20
2023-05-17T23:30:12.322Z,22.90
2023-05-17T23:32:40.516Z,21.90
2023-05-17T23:35:09.695Z,20.80
2023-05-17T23:37:38.580Z,19.00
2023-05-17T23:40:07.725Z,17.20
2023-05-17T23:42:35.901Z,13.80
2023-05-17T23:45:04.511Z,12.70
2023-05-17T23:47:32.948Z,14.70
2023-05-17T23:50:01.473Z,23.90
2023-05-17T23:52:29.709Z,13.00
2023-05-17T23:54:58.077Z,13.20
2023-05-17T23:57:26.296Z,18.70
2023-05-17T23:59:54.450Z,18.90
